Aviation Digital Data Service (ADDS)

Output produced by METARs form (1925 UTC 17 February 2018)
found at http://aviationweather.gov/adds/metars/
 
KINT 171904Z 1719/1818 11006KT 6SM -RA BR OVC020 
     TEMPO 1719/1721 3SM RA BR OVC012 
     FM172100 VRB04KT 2SM -RADZ OVC011 
     FM180000 VRB03KT 1 1/2SM -RADZ BR OVC006 
     FM180600 VRB04KT P6SM BKN200 
     FM181100 VRB03KT P6SM SCT100